Overview Statistics Trail Chart Weather Telemetry Raw packets
 

This is the latest recevied weather packets stored in our database for station/object W5MAI. If no packets are shown the sender has not sent any weather packets the latest 10 day(s).

<< 1 2 3 4 5 >>
Time Temp. Humidity Pressure Rain* Wind** Luminosity Snow
1788660825 31.11° C 55% 1013.3 hPa 0 mm - 0 W/m² -
1788660261 31.11° C 55% 1013.2 hPa 0 mm - 0 W/m² -
1788659606 30° C 57% 1013.1 hPa 0 mm - 0 W/m² -
1788657827 31.67° C 54% 1012.8 hPa 0 mm - 0 W/m² -
1788657249 32.22° C 53% 1012.8 hPa 0 mm - 0 W/m² -
1788656603 32.78° C 49% 1012.6 hPa 0 mm - 0 W/m² -
1788656027 33.33° C 48% 1012.5 hPa 0 mm - 5 W/m² -
1788655432 33.33° C 47% 1012.5 hPa 0 mm - 11 W/m² -
1788654835 33.89° C 46% 1012.5 hPa 0 mm - 21 W/m² -
1788653604 34.44° C 42% 1012.5 hPa 0 mm - 69 W/m² -
1788652417 35° C 41% 1012.5 hPa 0 mm - 130 W/m² -
1788651817 35° C 42% 1012.5 hPa 0 mm - 165 W/m² -
1788651223 35° C 40% 1012.5 hPa 0 mm - 190 W/m² -
1788650653 35° C 41% 1012.5 hPa 0 mm - 234 W/m² -
1788650059 35° C 41% 1012.4 hPa 0 mm - 271 W/m² -
1788649408 35° C 40% 1012.2 hPa 0 mm - 311 W/m² -
1788648825 35° C 40% 1012.5 hPa 0 mm - 343 W/m² -
1788648255 35° C 42% 1012.7 hPa 0 mm - 397 W/m² -
1788647609 34.44° C 44% 1012.6 hPa 0 mm - 480 W/m² -
1788647041 34.44° C 44% 1012.6 hPa 0 mm - 142 W/m² -
1788646410 35° C 43% 1012.6 hPa 0 mm - 520 W/m² -
1788645836 35° C 45% 1012.8 hPa 0 mm - 334 W/m² -
1788645204 34.44° C 44% 1012.8 hPa 0 mm - 617 W/m² -
1788642836 34.44° C 46% 1012.9 hPa 0 mm - 816 W/m² -
1788642258 35° C 45% 1012.9 hPa 0 mm - 835 W/m² -

* Rain latest hour (hover to see other rain measurements)
** Current wind speed in m/s (hover to see current wind gust speed)